Time;durP1;ratioP1;P1;durP2;ratioP2;P2;SDS_P1;SDS_P2;PMS_P1;PMS_P2;Temp;Humidity;BMP_temperature;BMP_pressure;BME280_temperature;BME280_humidity;BME280_pressure;Samples;Min_cycle;Max_cycle;Signal;HPM_P1;HPM_P2
2023/10/25 00:00:29;;;;;;;;;;;11.50;99.90;;;;;;5013977;28;20387;-67
2023/10/25 00:02:55;;;;;;;;;;;11.50;99.90;;;;;;5014360;28;19910;-67
2023/10/25 00:05:21;;;;;;;;;;;11.50;99.90;;;;;;5013976;28;20276;-68
2023/10/25 00:07:47;;;;;;;;;;;11.40;99.90;;;;;;5012627;28;19959;-67
2023/10/25 00:10:12;;;;;;;;;;;11.30;99.90;;;;;;5014208;28;19997;-68
2023/10/25 00:12:37;;;;;;;;;;;11.30;99.90;;;;;;5017588;28;19932;-68
2023/10/25 00:15:04;;;;;;;;;;;11.20;99.90;;;;;;5026373;28;20445;-67
2023/10/25 00:17:29;;;;;;;;;;;11.30;99.90;;;;;;5021489;28;19992;-67
2023/10/25 00:19:55;;;;;;;;;;;11.50;99.90;;;;;;5013616;28;19918;-68
2023/10/25 00:22:20;;;;;;;;;;;11.40;99.90;;;;;;5012458;28;19910;-68
2023/10/25 00:24:45;;;;;;;;;;;11.30;99.90;;;;;;5013874;28;20013;-68
2023/10/25 00:27:11;;;;;;;;;;;11.30;99.90;;;;;;5014299;28;19909;-68
2023/10/25 00:29:36;;;;;;;;;;;11.20;99.90;;;;;;5015137;28;19917;-68
2023/10/25 00:32:04;;;;;;;;;;;11.20;99.90;;;;;;5015730;28;19909;-68
2023/10/25 00:34:29;;;;;;;;;;;11.20;99.90;;;;;;5014017;28;19974;-68
2023/10/25 00:36:55;;;;;;;;;;;11.20;99.90;;;;;;5013882;28;19957;-68
2023/10/25 00:39:20;;;;;;;;;;;11.20;99.90;;;;;;5013887;28;19910;-68
2023/10/25 00:41:46;;;;;;;;;;;11.20;99.90;;;;;;5014146;28;20479;-68
2023/10/25 00:44:11;;;;;;;;;;;11.20;99.90;;;;;;5013390;28;20330;-68
2023/10/25 00:46:37;;;;;;;;;;;11.20;99.90;;;;;;5013392;28;19913;-68
2023/10/25 00:49:02;;;;;;;;;;;11.20;99.90;;;;;;5013190;28;19936;-68
2023/10/25 00:51:29;;;;;;;;;;;11.20;99.90;;;;;;4995059;28;20001;-68
2023/10/25 00:53:55;;;;;;;;;;;11.20;99.90;;;;;;4992588;28;19910;-68
2023/10/25 00:56:24;;;;;;;;;;;11.20;99.90;;;;;;4992306;28;19910;-68
2023/10/25 00:58:51;;;;;;;;;;;11.20;99.90;;;;;;4996578;28;19980;-67
2023/10/25 01:01:18;;;;;;;;;;;11.20;99.90;;;;;;4995791;28;20001;-67
2023/10/25 01:03:43;;;;;;;;;;;11.20;99.90;;;;;;4997062;28;19968;-67
2023/10/25 01:06:09;;;;;;;;;;;11.20;99.90;;;;;;4996984;28;19909;-67
2023/10/25 01:08:34;;;;;;;;;;;11.20;99.90;;;;;;4997685;28;19916;-67
2023/10/25 01:11:00;;;;;;;;;;;11.20;99.90;;;;;;4997281;28;19909;-68
2023/10/25 01:13:25;;;;;;;;;;;11.10;99.90;;;;;;4995837;28;19910;-68
2023/10/25 01:15:51;;;;;;;;;;;11.10;99.90;;;;;;4997035;28;19917;-68
2023/10/25 01:18:16;;;;;;;;;;;11.10;99.90;;;;;;4995660;28;19921;-68
2023/10/25 01:20:45;;;;;;;;;;;11.00;99.90;;;;;;5008373;28;20000;-68
2023/10/25 01:23:11;;;;;;;;;;;11.00;99.90;;;;;;5016484;28;19909;-68
2023/10/25 01:25:37;;;;;;;;;;;10.90;99.90;;;;;;5016938;28;19916;-68
2023/10/25 01:28:03;;;;;;;;;;;10.90;99.90;;;;;;5017309;28;19909;-68
2023/10/25 01:30:29;;;;;;;;;;;11.20;99.90;;;;;;5017833;28;19913;-68
2023/10/25 01:32:54;;;;;;;;;;;11.40;99.90;;;;;;5016752;28;19932;-68
2023/10/25 01:35:20;;;;;;;;;;;11.40;99.90;;;;;;5016181;28;19913;-68
2023/10/25 01:37:45;;;;;;;;;;;11.40;99.90;;;;;;5016389;28;19949;-68
2023/10/25 01:40:11;;;;;;;;;;;11.50;99.90;;;;;;5016217;28;19914;-68
2023/10/25 01:42:36;;;;;;;;;;;11.60;99.90;;;;;;5015490;28;20007;-67
2023/10/25 01:45:02;;;;;;;;;;;11.60;99.90;;;;;;5014891;28;19913;-68
2023/10/25 01:47:28;;;;;;;;;;;11.40;99.90;;;;;;5016168;28;19909;-68
2023/10/25 01:49:53;;;;;;;;;;;11.40;99.90;;;;;;5016110;28;19920;-67
2023/10/25 01:52:19;;;;;;;;;;;11.30;99.90;;;;;;5016194;28;19914;-68
2023/10/25 01:54:46;;;;;;;;;;;11.20;99.90;;;;;;5014663;28;20383;-68
2023/10/25 01:57:12;;;;;;;;;;;11.10;99.90;;;;;;5016036;28;19916;-68
2023/10/25 01:59:37;;;;;;;;;;;11.00;99.90;;;;;;5015840;28;19914;-68
2023/10/25 02:02:02;;;;;;;;;;;11.20;99.90;;;;;;5014511;28;19916;-68
2023/10/25 02:04:28;;;;;;;;;;;11.20;99.90;;;;;;5015720;28;19910;-67
2023/10/25 02:06:53;;;;;;;;;;;11.20;99.90;;;;;;5015490;28;19910;-68
2023/10/25 02:09:19;;;;;;;;;;;11.20;99.90;;;;;;5015020;28;19918;-67
2023/10/25 02:11:44;;;;;;;;;;;11.30;99.90;;;;;;5015811;28;20000;-67
2023/10/25 02:14:10;;;;;;;;;;;11.30;99.90;;;;;;5015815;28;20021;-67
2023/10/25 02:16:35;;;;;;;;;;;11.20;99.90;;;;;;5016122;28;19916;-67
2023/10/25 02:19:01;;;;;;;;;;;11.10;99.90;;;;;;5014191;28;19910;-67
2023/10/25 02:21:27;;;;;;;;;;;11.10;99.90;;;;;;5015013;28;20094;-67
2023/10/25 02:23:55;;;;;;;;;;;11.00;99.90;;;;;;5015258;28;19909;-67
2023/10/25 02:26:20;;;;;;;;;;;11.00;99.90;;;;;;5015653;28;20051;-67
2023/10/25 02:28:46;;;;;;;;;;;10.90;99.90;;;;;;5017284;28;19957;-67
2023/10/25 02:31:11;;;;;;;;;;;10.90;99.90;;;;;;5017331;28;19909;-68
2023/10/25 02:33:37;;;;;;;;;;;10.90;99.90;;;;;;5017241;28;20427;-67
2023/10/25 02:36:02;;;;;;;;;;;10.90;99.90;;;;;;5014869;28;19909;-67
2023/10/25 02:38:28;;;;;;;;;;;10.80;99.90;;;;;;5016486;28;19909;-67
2023/10/25 02:40:53;;;;;;;;;;;10.90;99.90;;;;;;5015766;28;20261;-67
2023/10/25 02:43:19;;;;;;;;;;;11.00;99.90;;;;;;5016041;28;20013;-68
2023/10/25 02:45:44;;;;;;;;;;;11.00;99.90;;;;;;5014759;28;19910;-67
2023/10/25 02:48:13;;;;;;;;;;;10.90;99.90;;;;;;5013916;28;19960;-67
2023/10/25 02:50:39;;;;;;;;;;;10.90;99.90;;;;;;5014557;28;19924;-67
2023/10/25 02:53:04;;;;;;;;;;;10.90;99.90;;;;;;5015919;28;20280;-67
2023/10/25 02:55:30;;;;;;;;;;;10.80;99.90;;;;;;5015452;28;20283;-67
2023/10/25 02:57:55;;;;;;;;;;;10.80;99.90;;;;;;5014803;28;19910;-67
2023/10/25 03:00:21;;;;;;;;;;;10.70;99.90;;;;;;5015366;28;19917;-67
2023/10/25 03:02:46;;;;;;;;;;;10.70;99.90;;;;;;5015097;28;19915;-67
2023/10/25 03:05:12;;;;;;;;;;;10.70;99.90;;;;;;5013402;28;20004;-67
2023/10/25 03:07:37;;;;;;;;;;;10.70;99.90;;;;;;5014778;28;19914;-67
2023/10/25 03:10:03;;;;;;;;;;;10.70;99.90;;;;;;5019939;28;19913;-67
2023/10/25 03:12:30;;;;;;;;;;;10.70;99.90;;;;;;5018354;28;19910;-67
2023/10/25 03:14:55;;;;;;;;;;;10.70;99.90;;;;;;5013556;28;19920;-68
2023/10/25 03:17:21;;;;;;;;;;;10.60;99.90;;;;;;5014598;28;19909;-68
2023/10/25 03:19:47;;;;;;;;;;;10.70;99.90;;;;;;5014895;28;19913;-68
2023/10/25 03:22:12;;;;;;;;;;;10.70;99.90;;;;;;5014772;28;19910;-68
2023/10/25 03:24:38;;;;;;;;;;;10.70;99.90;;;;;;5014633;28;19916;-67
2023/10/25 03:27:03;;;;;;;;;;;10.70;99.90;;;;;;5014580;28;20015;-68
2023/10/25 03:29:29;;;;;;;;;;;10.70;99.90;;;;;;5013034;28;19921;-68
2023/10/25 03:31:58;;;;;;;;;;;10.90;99.90;;;;;;5014839;28;19910;-68
2023/10/25 03:34:23;;;;;;;;;;;10.90;99.90;;;;;;5014111;28;20447;-68
2023/10/25 03:36:50;;;;;;;;;;;10.80;99.90;;;;;;5012830;28;19967;-67
2023/10/25 03:39:16;;;;;;;;;;;10.90;99.90;;;;;;5014155;28;19910;-68
2023/10/25 03:41:45;;;;;;;;;;;10.90;99.90;;;;;;5012929;28;20366;-68
2023/10/25 03:44:11;;;;;;;;;;;10.80;99.90;;;;;;5014087;28;19917;-68
2023/10/25 03:46:37;;;;;;;;;;;10.80;99.90;;;;;;5012930;28;19910;-68
2023/10/25 03:49:02;;;;;;;;;;;10.70;99.90;;;;;;5014153;28;20068;-68
2023/10/25 03:51:27;;;;;;;;;;;10.70;99.90;;;;;;5012611;28;19973;-68
2023/10/25 03:53:53;;;;;;;;;;;10.60;99.90;;;;;;5013455;28;19920;-68
2023/10/25 03:56:18;;;;;;;;;;;10.60;99.90;;;;;;5013082;28;20012;-68
2023/10/25 03:58:44;;;;;;;;;;;10.60;99.90;;;;;;5014427;28;19917;-68
2023/10/25 04:01:09;;;;;;;;;;;10.50;99.90;;;;;;5015440;28;19968;-68
2023/10/25 04:03:35;;;;;;;;;;;10.40;99.90;;;;;;5015741;28;19933;-68
2023/10/25 04:06:02;;;;;;;;;;;10.40;99.90;;;;;;5015193;28;20287;-68
2023/10/25 04:08:27;;;;;;;;;;;10.40;99.90;;;;;;5015331;28;19914;-68
2023/10/25 04:10:53;;;;;;;;;;;10.40;99.90;;;;;;5013600;28;20422;-68
2023/10/25 04:13:20;;;;;;;;;;;10.30;99.90;;;;;;5014491;28;19909;-68
2023/10/25 04:15:56;;;;;;;;;;;10.20;99.90;;;;;;5014594;28;19909;-68
2023/10/25 04:18:24;;;;;;;;;;;10.20;99.90;;;;;;5015078;28;19916;-68
2023/10/25 04:20:50;;;;;;;;;;;10.10;99.90;;;;;;5025552;23;19926;-62
2023/10/25 04:23:16;;;;;;;;;;;10.10;99.90;;;;;;5013431;28;19959;-63
2023/10/25 04:25:41;;;;;;;;;;;10.00;99.90;;;;;;5013680;28;19909;-63
2023/10/25 04:28:07;;;;;;;;;;;10.00;99.90;;;;;;5013204;28;19924;-63
2023/10/25 04:30:32;;;;;;;;;;;10.00;99.90;;;;;;5013343;28;20372;-65
2023/10/25 04:32:58;;;;;;;;;;;9.90;99.90;;;;;;5014992;28;19910;-63
2023/10/25 04:35:23;;;;;;;;;;;10.00;99.90;;;;;;5016918;28;20000;-64
2023/10/25 04:37:49;;;;;;;;;;;10.00;99.90;;;;;;5016974;28;19917;-63
2023/10/25 04:40:15;;;;;;;;;;;9.90;99.90;;;;;;5015668;28;19916;-63
2023/10/25 04:42:40;;;;;;;;;;;9.90;99.90;;;;;;5017223;28;19956;-63
2023/10/25 04:45:06;;;;;;;;;;;9.80;99.90;;;;;;5017199;28;19909;-64
2023/10/25 04:47:31;;;;;;;;;;;9.80;99.90;;;;;;5017125;28;20264;-62
2023/10/25 04:50:01;;;;;;;;;;;9.80;99.90;;;;;;5016379;28;20248;-62
2023/10/25 04:52:26;;;;;;;;;;;9.70;99.90;;;;;;5016694;28;20399;-62
2023/10/25 04:54:52;;;;;;;;;;;9.70;99.90;;;;;;5017104;28;19910;-63
2023/10/25 04:57:17;;;;;;;;;;;9.70;99.90;;;;;;5017324;28;20271;-63
2023/10/25 04:59:43;;;;;;;;;;;9.70;99.90;;;;;;5016753;28;19932;-63
2023/10/25 05:02:08;;;;;;;;;;;9.60;99.90;;;;;;5016934;28;19913;-65
2023/10/25 05:04:34;;;;;;;;;;;9.60;99.90;;;;;;5016951;28;20024;-64
2023/10/25 05:07:00;;;;;;;;;;;9.50;99.90;;;;;;5019217;28;19913;-63
2023/10/25 05:09:25;;;;;;;;;;;9.50;99.90;;;;;;5019020;28;19956;-61
2023/10/25 05:11:55;;;;;;;;;;;9.50;99.90;;;;;;5015022;28;19910;-62
2023/10/25 05:14:21;;;;;;;;;;;9.50;99.90;;;;;;5016607;28;19909;-62
2023/10/25 05:16:46;;;;;;;;;;;9.60;99.90;;;;;;5016318;28;20000;-65
2023/10/25 05:19:12;;;;;;;;;;;9.60;99.90;;;;;;5016214;28;19955;-63
2023/10/25 05:21:40;;;;;;;;;;;9.60;99.90;;;;;;5015918;28;20386;-65
2023/10/25 05:24:07;;;;;;;;;;;9.60;99.90;;;;;;5016146;28;19917;-63
2023/10/25 05:26:32;;;;;;;;;;;9.60;99.90;;;;;;5016059;28;19909;-64
2023/10/25 05:28:58;;;;;;;;;;;9.70;99.90;;;;;;5016104;28;19940;-63
2023/10/25 05:31:26;;;;;;;;;;;9.70;99.90;;;;;;5016183;28;19980;-63
2023/10/25 05:33:52;;;;;;;;;;;9.70;99.90;;;;;;5015958;28;20383;-63
2023/10/25 05:36:17;;;;;;;;;;;9.70;99.90;;;;;;5014433;28;19913;-63
2023/10/25 05:38:43;;;;;;;;;;;9.70;99.90;;;;;;5015828;28;19909;-63
2023/10/25 05:41:09;;;;;;;;;;;9.70;99.90;;;;;;5015822;28;19909;-63
2023/10/25 05:43:36;;;;;;;;;;;9.70;99.90;;;;;;5013764;28;20427;-63
2023/10/25 05:46:02;;;;;;;;;;;9.70;99.90;;;;;;5015181;28;20360;-63
2023/10/25 05:48:27;;;;;;;;;;;9.70;99.90;;;;;;5015587;28;19916;-63
2023/10/25 05:50:53;;;;;;;;;;;9.70;99.90;;;;;;5015362;28;20017;-63
2023/10/25 05:53:19;;;;;;;;;;;9.70;99.90;;;;;;5015502;28;20008;-63
2023/10/25 05:55:44;;;;;;;;;;;9.60;99.90;;;;;;5015462;28;19909;-64
2023/10/25 05:58:10;;;;;;;;;;;9.60;99.90;;;;;;5015669;28;20024;-62
2023/10/25 06:00:35;;;;;;;;;;;9.60;99.90;;;;;;5015951;28;19915;-62
2023/10/25 06:03:01;;;;;;;;;;;9.60;99.90;;;;;;5015280;28;19996;-62
2023/10/25 06:05:30;;;;;;;;;;;9.60;99.90;;;;;;5015177;28;20004;-63
2023/10/25 06:07:56;;;;;;;;;;;9.60;99.90;;;;;;5015533;28;19963;-64
2023/10/25 06:10:21;;;;;;;;;;;9.60;99.90;;;;;;5015146;28;19948;-63
2023/10/25 06:12:47;;;;;;;;;;;9.80;99.90;;;;;;5015264;28;19914;-64
2023/10/25 06:15:12;;;;;;;;;;;9.80;99.90;;;;;;5015200;28;19910;-64
2023/10/25 06:17:38;;;;;;;;;;;9.80;99.90;;;;;;5015282;28;20291;-64
2023/10/25 06:20:04;;;;;;;;;;;9.90;99.90;;;;;;5015052;28;19955;-64
2023/10/25 06:22:29;;;;;;;;;;;10.00;99.90;;;;;;5014932;28;19914;-64
2023/10/25 06:24:55;;;;;;;;;;;9.90;99.90;;;;;;5013881;28;19968;-64
2023/10/25 06:27:20;;;;;;;;;;;10.00;99.90;;;;;;5014839;28;19963;-64
2023/10/25 06:29:46;;;;;;;;;;;10.00;99.90;;;;;;5014672;28;19921;-63
2023/10/25 06:32:11;;;;;;;;;;;10.00;99.90;;;;;;5015045;28;19916;-63
2023/10/25 06:34:37;;;;;;;;;;;9.90;99.90;;;;;;5014583;28;19913;-63
2023/10/25 06:37:03;;;;;;;;;;;9.90;99.90;;;;;;5014469;28;19917;-63
2023/10/25 06:39:28;;;;;;;;;;;10.00;99.90;;;;;;5014713;28;19910;-63
2023/10/25 06:41:54;;;;;;;;;;;10.00;99.90;;;;;;5015303;28;19910;-63
2023/10/25 06:44:20;;;;;;;;;;;10.00;99.90;;;;;;5014857;28;19968;-63
2023/10/25 06:46:45;;;;;;;;;;;10.20;99.90;;;;;;5015075;28;19917;-63
2023/10/25 06:49:11;;;;;;;;;;;10.30;99.90;;;;;;5014664;28;19914;-63
2023/10/25 06:51:37;;;;;;;;;;;10.40;99.90;;;;;;5014236;28;19936;-63
2023/10/25 06:54:02;;;;;;;;;;;10.50;99.90;;;;;;5015428;28;20003;-63
2023/10/25 06:56:29;;;;;;;;;;;10.50;99.90;;;;;;5014381;28;19932;-63
2023/10/25 06:58:55;;;;;;;;;;;10.60;99.90;;;;;;5015451;28;19909;-64
2023/10/25 07:01:22;;;;;;;;;;;10.60;99.90;;;;;;5014644;28;20384;-64
2023/10/25 07:03:49;;;;;;;;;;;10.60;99.90;;;;;;5014696;28;20351;-64
2023/10/25 07:06:15;;;;;;;;;;;10.60;99.90;;;;;;5014300;28;20005;-64
2023/10/25 07:08:41;;;;;;;;;;;10.60;99.90;;;;;;5014351;28;19910;-66
2023/10/25 07:11:07;;;;;;;;;;;10.70;99.90;;;;;;5014170;28;20281;-64
2023/10/25 07:13:32;;;;;;;;;;;10.70;99.90;;;;;;5014253;28;19913;-64
2023/10/25 07:15:58;;;;;;;;;;;10.80;99.90;;;;;;5014444;28;19920;-64
2023/10/25 07:18:24;;;;;;;;;;;11.00;99.90;;;;;;5014190;28;19910;-64
2023/10/25 07:20:52;;;;;;;;;;;11.00;99.90;;;;;;5013729;28;19922;-63
2023/10/25 07:23:18;;;;;;;;;;;11.20;99.90;;;;;;5014212;28;19916;-64
2023/10/25 07:25:44;;;;;;;;;;;11.30;99.90;;;;;;5014386;28;19909;-64
2023/10/25 07:28:09;;;;;;;;;;;11.30;99.90;;;;;;5013941;28;19910;-64
2023/10/25 07:30:35;;;;;;;;;;;11.40;99.90;;;;;;5014045;28;19924;-65
2023/10/25 07:33:00;;;;;;;;;;;11.40;99.90;;;;;;5014317;28;19910;-64
2023/10/25 07:35:26;;;;;;;;;;;11.50;99.90;;;;;;5014493;28;20005;-63
2023/10/25 07:37:51;;;;;;;;;;;11.60;99.90;;;;;;5013917;28;19910;-62
2023/10/25 07:40:17;;;;;;;;;;;11.70;99.90;;;;;;5013992;28;20280;-64
2023/10/25 07:42:43;;;;;;;;;;;11.80;99.90;;;;;;5014177;28;19964;-64
2023/10/25 07:45:08;;;;;;;;;;;11.90;99.90;;;;;;5014420;28;20023;-64
2023/10/25 07:47:34;;;;;;;;;;;11.90;99.90;;;;;;5015252;28;20016;-65
2023/10/25 07:49:59;;;;;;;;;;;12.00;99.90;;;;;;5013024;28;19913;-65
2023/10/25 07:52:27;;;;;;;;;;;12.00;99.90;;;;;;5015143;28;20003;-65
2023/10/25 07:54:53;;;;;;;;;;;12.00;99.90;;;;;;5016746;28;19909;-64
2023/10/25 07:57:19;;;;;;;;;;;12.00;99.90;;;;;;5017193;28;20532;-65
2023/10/25 07:59:44;;;;;;;;;;;12.10;99.90;;;;;;5013299;28;19932;-64
2023/10/25 08:02:10;;;;;;;;;;;12.20;99.90;;;;;;5013344;28;20375;-65
2023/10/25 08:04:35;;;;;;;;;;;12.30;99.90;;;;;;5013380;28;20371;-65
2023/10/25 08:07:01;;;;;;;;;;;12.40;99.90;;;;;;5012639;28;20427;-65
2023/10/25 08:09:27;;;;;;;;;;;12.50;99.90;;;;;;5013381;28;19921;-68
2023/10/25 08:11:52;;;;;;;;;;;12.70;99.90;;;;;;5013281;28;19909;-68
2023/10/25 08:14:18;;;;;;;;;;;12.80;99.90;;;;;;5016246;28;19916;-67
2023/10/25 08:16:44;;;;;;;;;;;12.90;99.90;;;;;;5015323;28;19910;-67
2023/10/25 08:19:09;;;;;;;;;;;13.10;99.90;;;;;;5013507;28;19909;-68
2023/10/25 08:21:38;;;;;;;;;;;13.20;99.90;;;;;;5012791;28;19975;-67
2023/10/25 08:24:05;;;;;;;;;;;13.20;99.90;;;;;;5013338;28;19916;-67
2023/10/25 08:26:34;;;;;;;;;;;13.40;99.90;;;;;;5013134;28;20264;-67
2023/10/25 08:29:00;;;;;;;;;;;13.30;99.90;;;;;;5013261;28;19914;-67
2023/10/25 08:31:26;;;;;;;;;;;13.30;99.90;;;;;;5013173;28;19916;-67
2023/10/25 08:33:51;;;;;;;;;;;13.30;99.90;;;;;;5013415;28;19916;-68
2023/10/25 08:36:17;;;;;;;;;;;13.40;99.90;;;;;;5012940;28;19913;-68
2023/10/25 08:38:42;;;;;;;;;;;13.50;99.90;;;;;;5013152;28;20008;-67
2023/10/25 08:41:07;;;;;;;;;;;13.60;99.90;;;;;;5011466;28;19909;-66
2023/10/25 08:43:33;;;;;;;;;;;13.60;99.90;;;;;;5011636;28;19909;-64
2023/10/25 08:46:00;;;;;;;;;;;13.60;99.90;;;;;;5013044;28;20367;-64
2023/10/25 08:48:26;;;;;;;;;;;13.60;99.90;;;;;;5011590;28;20005;-64
2023/10/25 08:50:52;;;;;;;;;;;13.60;99.90;;;;;;5011031;28;19925;-64
2023/10/25 08:53:22;;;;;;;;;;;13.60;99.90;;;;;;5012813;28;19997;-66
2023/10/25 08:55:50;;;;;;;;;;;13.50;99.90;;;;;;5011722;28;19913;-65
2023/10/25 08:58:15;;;;;;;;;;;13.40;99.90;;;;;;5013500;28;19917;-65
2023/10/25 09:00:41;;;;;;;;;;;13.40;99.90;;;;;;5013535;28;19909;-64
2023/10/25 09:03:06;;;;;;;;;;;13.30;99.90;;;;;;5013739;28;19920;-65
2023/10/25 09:05:38;;;;;;;;;;;13.30;99.90;;;;;;5013116;28;20326;-64
2023/10/25 09:08:16;;;;;;;;;;;13.30;99.90;;;;;;5013260;28;20364;-67
2023/10/25 09:10:41;;;;;;;;;;;13.20;99.90;;;;;;5012767;28;19914;-63
2023/10/25 09:13:13;;;;;;;;;;;13.20;99.90;;;;;;5012711;28;19914;-64
2023/10/25 09:15:39;;;;;;;;;;;13.20;99.90;;;;;;5010087;28;20352;-63
2023/10/25 09:18:04;;;;;;;;;;;13.30;99.90;;;;;;4999895;28;19964;-69
2023/10/25 09:20:30;;;;;;;;;;;13.40;99.90;;;;;;5002121;28;19918;-67
2023/10/25 09:23:11;;;;;;;;;;;13.40;99.90;;;;;;5016068;28;19910;-67
2023/10/25 09:25:37;;;;;;;;;;;13.40;99.90;;;;;;5010952;28;19920;-66
2023/10/25 09:28:29;;;;;;;;;;;13.50;99.90;;;;;;4996836;28;19997;-66
2023/10/25 09:30:55;;;;;;;;;;;13.40;99.90;;;;;;4996916;28;19914;-66
2023/10/25 09:33:22;;;;;;;;;;;13.40;99.90;;;;;;4996537;28;19957;-66
2023/10/25 09:35:48;;;;;;;;;;;13.40;99.90;;;;;;4996112;28;19957;-65
2023/10/25 09:38:14;;;;;;;;;;;13.50;99.90;;;;;;4996093;28;19910;-66
2023/10/25 09:40:41;;;;;;;;;;;13.60;99.90;;;;;;4996175;28;19977;-67
2023/10/25 09:43:12;;;;;;;;;;;13.70;99.90;;;;;;4996083;28;19910;-66
2023/10/25 09:45:38;;;;;;;;;;;13.70;99.90;;;;;;4996388;28;19910;-66
2023/10/25 09:48:05;;;;;;;;;;;13.50;99.90;;;;;;5015278;28;19983;-70
2023/10/25 09:50:36;;;;;;;;;;;13.40;99.90;;;;;;5016377;28;19914;-70
2023/10/25 09:53:08;;;;;;;;;;;13.40;99.90;;;;;;5016334;28;19910;-65
2023/10/25 09:55:34;;;;;;;;;;;13.30;99.90;;;;;;5016497;28;19917;-65
2023/10/25 09:58:01;;;;;;;;;;;13.20;99.90;;;;;;5015805;28;19962;-65
2023/10/25 10:00:27;;;;;;;;;;;13.10;99.90;;;;;;5015427;28;20033;-66
2023/10/25 10:02:58;;;;;;;;;;;13.00;99.90;;;;;;5015901;28;20299;-67
2023/10/25 10:05:32;;;;;;;;;;;13.00;99.90;;;;;;5015966;28;19931;-67
2023/10/25 10:08:10;;;;;;;;;;;13.00;99.90;;;;;;5015166;28;19919;-67
2023/10/25 10:10:47;;;;;;;;;;;13.00;99.90;;;;;;5015506;28;19929;-66
2023/10/25 10:13:16;;;;;;;;;;;13.00;99.90;;;;;;5015294;28;19956;-67
2023/10/25 10:16:00;;;;;;;;;;;13.10;99.90;;;;;;5015376;28;19917;-67
2023/10/25 10:18:26;;;;;;;;;;;13.20;99.90;;;;;;5015631;28;19909;-67
2023/10/25 10:20:59;;;;;;;;;;;13.30;99.90;;;;;;5015511;28;19929;-65
2023/10/25 10:23:38;;;;;;;;;;;13.40;99.90;;;;;;5015209;28;19972;-65
2023/10/25 10:26:04;;;;;;;;;;;13.50;99.90;;;;;;5015693;28;19914;-66
2023/10/25 10:28:48;;;;;;;;;;;13.50;99.90;;;;;;5015638;28;20311;-67
2023/10/25 10:31:14;;;;;;;;;;;13.40;99.90;;;;;;5014495;28;19913;-67
2023/10/25 10:33:47;;;;;;;;;;;13.30;99.90;;;;;;5015411;28;19917;-68
2023/10/25 10:36:26;;;;;;;;;;;13.40;99.90;;;;;;5015061;28;19980;-68
2023/10/25 10:39:14;;;;;;;;;;;13.50;99.90;;;;;;5014860;28;19909;-66
2023/10/25 10:41:40;;;;;;;;;;;13.50;99.90;;;;;;5014581;28;19931;-66
2023/10/25 10:44:06;;;;;;;;;;;13.60;99.90;;;;;;5014702;28;19992;-68
2023/10/25 10:46:33;;;;;;;;;;;13.60;99.90;;;;;;5013301;28;19951;-66
2023/10/25 10:49:01;;;;;;;;;;;13.60;99.90;;;;;;5014403;28;19917;-67
2023/10/25 10:51:27;;;;;;;;;;;13.60;99.90;;;;;;5014422;28;20001;-66
2023/10/25 10:53:52;;;;;;;;;;;13.60;99.90;;;;;;5014815;28;20340;-67
2023/10/25 10:56:18;;;;;;;;;;;13.60;99.90;;;;;;5014518;28;19953;-67
2023/10/25 10:58:44;;;;;;;;;;;13.70;99.90;;;;;;5014590;28;19913;-68
2023/10/25 11:01:09;;;;;;;;;;;13.80;99.90;;;;;;5014466;28;20288;-68
2023/10/25 11:03:36;;;;;;;;;;;14.00;99.90;;;;;;5014492;28;19910;-68
2023/10/25 11:06:03;;;;;;;;;;;14.10;99.90;;;;;;5014040;28;20000;-67
2023/10/25 11:08:28;;;;;;;;;;;14.10;99.90;;;;;;5014512;28;19909;-69
2023/10/25 11:10:54;;;;;;;;;;;14.00;99.90;;;;;;5014637;28;19914;-68
2023/10/25 11:13:19;;;;;;;;;;;14.00;99.90;;;;;;5014532;28;19916;-67
2023/10/25 11:15:45;;;;;;;;;;;14.00;99.90;;;;;;5014352;28;19910;-67
2023/10/25 11:18:10;;;;;;;;;;;14.10;99.90;;;;;;5015895;28;19917;-68
2023/10/25 11:20:37;;;;;;;;;;;14.20;99.90;;;;;;5017338;28;19967;-67
2023/10/25 11:23:03;;;;;;;;;;;14.30;99.90;;;;;;5012975;28;19929;-68
2023/10/25 11:25:29;;;;;;;;;;;14.40;99.90;;;;;;5012947;28;19975;-67
2023/10/25 11:27:56;;;;;;;;;;;14.40;99.90;;;;;;5014163;28;20390;-68
2023/10/25 11:30:21;;;;;;;;;;;14.40;99.90;;;;;;5014450;28;19980;-68
2023/10/25 11:32:51;;;;;;;;;;;14.40;99.90;;;;;;5014463;28;19976;-67
2023/10/25 11:35:24;;;;;;;;;;;14.40;99.90;;;;;;5013941;28;19909;-67
2023/10/25 11:37:51;;;;;;;;;;;14.40;99.90;;;;;;5013716;28;19909;-67
2023/10/25 11:40:16;;;;;;;;;;;14.80;99.90;;;;;;5013776;28;19980;-68
2023/10/25 11:42:43;;;;;;;;;;;14.80;99.90;;;;;;5013118;28;19952;-66
2023/10/25 11:45:08;;;;;;;;;;;14.80;99.90;;;;;;5013823;28;20279;-68
2023/10/25 11:47:35;;;;;;;;;;;14.90;99.90;;;;;;5014187;28;19909;-67
2023/10/25 11:50:01;;;;;;;;;;;14.80;99.90;;;;;;5013742;28;20012;-67
2023/10/25 11:52:28;;;;;;;;;;;14.80;99.90;;;;;;5013730;28;19992;-68
2023/10/25 11:54:56;;;;;;;;;;;14.70;99.90;;;;;;5013837;28;19945;-68
2023/10/25 11:57:23;;;;;;;;;;;14.70;99.90;;;;;;5013465;28;20020;-68
2023/10/25 11:59:49;;;;;;;;;;;14.60;99.90;;;;;;5013339;28;19945;-68
2023/10/25 12:02:14;;;;;;;;;;;14.50;99.90;;;;;;5013707;28;19920;-66
2023/10/25 12:04:40;;;;;;;;;;;14.50;99.90;;;;;;5014469;28;19945;-69
2023/10/25 12:07:05;;;;;;;;;;;14.50;99.90;;;;;;5013698;28;19916;-65
2023/10/25 12:09:31;;;;;;;;;;;14.40;99.90;;;;;;5013175;28;19913;-66
2023/10/25 12:11:56;;;;;;;;;;;14.40;99.90;;;;;;5013239;28;20288;-66
2023/10/25 12:14:22;;;;;;;;;;;14.40;99.90;;;;;;5013603;28;19909;-66
2023/10/25 12:16:47;;;;;;;;;;;14.30;99.90;;;;;;5011865;28;20368;-65
2023/10/25 12:19:13;;;;;;;;;;;14.30;99.90;;;;;;5012002;28;19972;-67
2023/10/25 12:21:38;;;;;;;;;;;14.20;99.90;;;;;;5012806;28;19921;-65
2023/10/25 12:24:04;;;;;;;;;;;14.30;99.90;;;;;;5013523;28;19909;-68
2023/10/25 12:26:29;;;;;;;;;;;14.20;99.90;;;;;;5013743;28;19910;-66
2023/10/25 12:28:55;;;;;;;;;;;14.10;99.90;;;;;;5013202;28;20334;-66
2023/10/25 12:31:20;;;;;;;;;;;14.10;99.90;;;;;;5013089;28;19968;-66
2023/10/25 12:33:46;;;;;;;;;;;13.90;99.90;;;;;;5013050;28;19916;-65
2023/10/25 12:36:11;;;;;;;;;;;13.90;99.90;;;;;;5013015;28;19909;-65
2023/10/25 12:38:37;;;;;;;;;;;13.80;99.90;;;;;;5012799;28;19964;-67
2023/10/25 12:41:03;;;;;;;;;;;13.60;99.90;;;;;;5012829;28;20360;-66
2023/10/25 12:43:28;;;;;;;;;;;13.60;99.90;;;;;;5012811;28;19921;-65
2023/10/25 12:45:54;;;;;;;;;;;13.60;99.90;;;;;;5012879;28;19909;-65
2023/10/25 12:48:19;;;;;;;;;;;13.50;99.90;;;;;;5012837;28;19921;-67
2023/10/25 12:50:45;;;;;;;;;;;13.40;99.90;;;;;;5012762;28;20438;-66
2023/10/25 12:53:10;;;;;;;;;;;13.40;99.90;;;;;;5013101;28;20303;-67
2023/10/25 12:55:35;;;;;;;;;;;13.40;99.90;;;;;;5015268;28;20300;-67
2023/10/25 12:58:02;;;;;;;;;;;13.50;99.90;;;;;;5015113;28;20283;-69
2023/10/25 13:00:28;;;;;;;;;;;13.50;99.90;;;;;;5016752;28;19917;-68
2023/10/25 13:02:53;;;;;;;;;;;13.50;99.90;;;;;;5016994;28;19979;-67
2023/10/25 13:05:19;;;;;;;;;;;13.60;99.90;;;;;;5017044;28;19996;-67
2023/10/25 13:07:44;;;;;;;;;;;13.70;99.90;;;;;;5016651;28;20000;-65
2023/10/25 13:10:10;;;;;;;;;;;13.70;99.90;;;;;;5016709;28;19971;-67
2023/10/25 13:12:36;;;;;;;;;;;13.80;99.90;;;;;;5016412;28;19945;-67
2023/10/25 13:15:02;;;;;;;;;;;13.80;99.90;;;;;;5017015;28;19914;-67
2023/10/25 13:17:28;;;;;;;;;;;13.80;99.90;;;;;;5016543;28;20312;-68
2023/10/25 13:19:55;;;;;;;;;;;13.80;99.90;;;;;;5016168;28;19980;-66
2023/10/25 13:22:21;;;;;;;;;;;13.90;99.90;;;;;;5015138;28;20245;-67
2023/10/25 13:24:46;;;;;;;;;;;14.00;99.90;;;;;;5016325;28;19917;-67
2023/10/25 13:27:14;;;;;;;;;;;14.10;99.90;;;;;;5015565;28;22274;-65
2023/10/25 13:29:40;;;;;;;;;;;14.10;99.90;;;;;;5015883;28;19913;-67
2023/10/25 13:32:07;;;;;;;;;;;14.20;99.90;;;;;;5017017;28;19909;-66
2023/10/25 13:34:32;;;;;;;;;;;14.20;99.90;;;;;;5017198;28;20016;-67
2023/10/25 13:36:57;;;;;;;;;;;14.20;99.90;;;;;;5016810;28;19914;-66
2023/10/25 13:39:23;;;;;;;;;;;14.10;99.90;;;;;;5017609;28;19916;-66
2023/10/25 13:41:49;;;;;;;;;;;14.20;99.90;;;;;;5017503;28;19951;-69
2023/10/25 13:44:15;;;;;;;;;;;14.20;99.90;;;;;;5016435;28;20360;-66
2023/10/25 13:46:41;;;;;;;;;;;14.20;99.90;;;;;;5016448;28;20001;-68
2023/10/25 13:49:06;;;;;;;;;;;14.10;99.90;;;;;;5015992;28;19945;-68
2023/10/25 13:51:32;;;;;;;;;;;14.10;99.90;;;;;;5016186;28;19916;-67
2023/10/25 13:53:57;;;;;;;;;;;14.30;99.90;;;;;;5022959;28;19988;-69
2023/10/25 13:56:23;;;;;;;;;;;14.20;99.90;;;;;;5022106;28;20008;-62
2023/10/25 13:58:48;;;;;;;;;;;14.30;99.90;;;;;;5017439;28;19944;-67
2023/10/25 14:01:13;;;;;;;;;;;14.30;99.90;;;;;;5015834;28;19910;-67
2023/10/25 14:03:39;;;;;;;;;;;14.30;99.90;;;;;;5020011;28;19910;-69
2023/10/25 14:06:05;;;;;;;;;;;14.20;99.90;;;;;;5018750;28;19914;-69
2023/10/25 14:08:31;;;;;;;;;;;14.20;99.90;;;;;;5015986;28;19914;-68
2023/10/25 14:10:57;;;;;;;;;;;14.30;99.90;;;;;;5013950;28;19961;-68
2023/10/25 14:13:22;;;;;;;;;;;14.30;99.90;;;;;;5015586;28;19917;-69